sensor_id;sensor_type;location;lat;lon;timestamp;P1;durP1;ratioP1;P2;durP2;ratioP2
3779;SDS011;1905;52.482;9.802;2023-04-24T00:00:12;1.30;;;1.20;;
3779;SDS011;1905;52.482;9.802;2023-04-24T00:02:41;1.33;;;1.07;;
3779;SDS011;1905;52.482;9.802;2023-04-24T00:05:13;1.20;;;1.10;;
3779;SDS011;1905;52.482;9.802;2023-04-24T00:07:42;1.07;;;0.97;;
3779;SDS011;1905;52.482;9.802;2023-04-24T00:10:10;1.20;;;1.10;;
3779;SDS011;1905;52.482;9.802;2023-04-24T00:12:40;0.90;;;0.90;;
3779;SDS011;1905;52.482;9.802;2023-04-24T00:15:08;1.53;;;1.00;;
3779;SDS011;1905;52.482;9.802;2023-04-24T00:17:36;1.10;;;1.10;;
3779;SDS011;1905;52.482;9.802;2023-04-24T00:20:04;1.00;;;0.93;;
3779;SDS011;1905;52.482;9.802;2023-04-24T00:22:33;0.90;;;0.90;;
3779;SDS011;1905;52.482;9.802;2023-04-24T00:25:01;1.10;;;1.00;;
3779;SDS011;1905;52.482;9.802;2023-04-24T00:27:29;1.30;;;1.20;;
3779;SDS011;1905;52.482;9.802;2023-04-24T00:29:58;1.30;;;1.20;;
3779;SDS011;1905;52.482;9.802;2023-04-24T00:32:25;1.30;;;1.20;;
3779;SDS011;1905;52.482;9.802;2023-04-24T00:34:54;1.37;;;1.23;;
3779;SDS011;1905;52.482;9.802;2023-04-24T00:37:21;1.13;;;1.03;;
3779;SDS011;1905;52.482;9.802;2023-04-24T00:39:49;3.50;;;1.40;;
3779;SDS011;1905;52.482;9.802;2023-04-24T00:42:16;0.90;;;0.90;;
3779;SDS011;1905;52.482;9.802;2023-04-24T00:44:44;0.80;;;0.80;;
3779;SDS011;1905;52.482;9.802;2023-04-24T00:47:13;1.90;;;1.00;;
3779;SDS011;1905;52.482;9.802;2023-04-24T00:49:41;1.27;;;1.17;;
3779;SDS011;1905;52.482;9.802;2023-04-24T00:52:09;1.00;;;1.00;;
3779;SDS011;1905;52.482;9.802;2023-04-24T00:54:36;3.47;;;0.97;;
3779;SDS011;1905;52.482;9.802;2023-04-24T00:57:04;1.40;;;1.00;;
3779;SDS011;1905;52.482;9.802;2023-04-24T00:59:32;1.00;;;1.00;;
3779;SDS011;1905;52.482;9.802;2023-04-24T01:01:59;0.90;;;0.90;;
3779;SDS011;1905;52.482;9.802;2023-04-24T01:04:28;1.40;;;1.10;;
3779;SDS011;1905;52.482;9.802;2023-04-24T01:06:57;1.50;;;1.20;;
3779;SDS011;1905;52.482;9.802;2023-04-24T01:09:24;0.80;;;0.80;;
3779;SDS011;1905;52.482;9.802;2023-04-24T01:11:52;1.23;;;1.13;;
3779;SDS011;1905;52.482;9.802;2023-04-24T01:14:20;1.13;;;1.03;;
3779;SDS011;1905;52.482;9.802;2023-04-24T01:16:48;1.93;;;1.07;;
3779;SDS011;1905;52.482;9.802;2023-04-24T01:19:16;1.20;;;1.10;;
3779;SDS011;1905;52.482;9.802;2023-04-24T01:21:47;1.17;;;1.17;;
3779;SDS011;1905;52.482;9.802;2023-04-24T01:24:19;1.00;;;1.00;;
3779;SDS011;1905;52.482;9.802;2023-04-24T01:26:47;3.17;;;1.13;;
3779;SDS011;1905;52.482;9.802;2023-04-24T01:29:14;1.10;;;1.10;;
3779;SDS011;1905;52.482;9.802;2023-04-24T01:31:42;1.83;;;1.20;;
3779;SDS011;1905;52.482;9.802;2023-04-24T01:34:10;1.40;;;1.30;;
3779;SDS011;1905;52.482;9.802;2023-04-24T01:36:37;1.70;;;1.33;;
3779;SDS011;1905;52.482;9.802;2023-04-24T01:39:06;1.30;;;1.20;;
3779;SDS011;1905;52.482;9.802;2023-04-24T01:41:35;1.03;;;0.93;;
3779;SDS011;1905;52.482;9.802;2023-04-24T01:44:03;3.47;;;1.30;;
3779;SDS011;1905;52.482;9.802;2023-04-24T01:46:30;2.10;;;1.20;;
3779;SDS011;1905;52.482;9.802;2023-04-24T01:49:00;1.30;;;1.20;;
3779;SDS011;1905;52.482;9.802;2023-04-24T01:51:28;1.10;;;1.00;;
3779;SDS011;1905;52.482;9.802;2023-04-24T01:53:56;2.57;;;1.37;;
3779;SDS011;1905;52.482;9.802;2023-04-24T01:56:24;1.37;;;1.27;;
3779;SDS011;1905;52.482;9.802;2023-04-24T01:58:53;1.40;;;1.30;;
3779;SDS011;1905;52.482;9.802;2023-04-24T02:01:33;3.17;;;1.70;;
3779;SDS011;1905;52.482;9.802;2023-04-24T02:04:02;1.37;;;1.00;;
3779;SDS011;1905;52.482;9.802;2023-04-24T02:06:30;1.40;;;1.30;;
3779;SDS011;1905;52.482;9.802;2023-04-24T02:08:59;1.20;;;1.10;;
3779;SDS011;1905;52.482;9.802;2023-04-24T02:11:27;1.97;;;1.30;;
3779;SDS011;1905;52.482;9.802;2023-04-24T02:13:57;1.37;;;1.00;;
3779;SDS011;1905;52.482;9.802;2023-04-24T02:16:51;1.20;;;1.10;;
3779;SDS011;1905;52.482;9.802;2023-04-24T02:19:19;1.13;;;1.00;;
3779;SDS011;1905;52.482;9.802;2023-04-24T02:21:49;1.93;;;1.07;;
3779;SDS011;1905;52.482;9.802;2023-04-24T02:24:17;1.93;;;1.10;;
3779;SDS011;1905;52.482;9.802;2023-04-24T02:26:44;1.00;;;0.90;;
3779;SDS011;1905;52.482;9.802;2023-04-24T02:29:13;1.33;;;1.23;;
3779;SDS011;1905;52.482;9.802;2023-04-24T02:31:41;1.80;;;1.00;;
3779;SDS011;1905;52.482;9.802;2023-04-24T02:34:09;1.30;;;1.20;;
3779;SDS011;1905;52.482;9.802;2023-04-24T02:36:36;1.10;;;1.10;;
3779;SDS011;1905;52.482;9.802;2023-04-24T02:39:04;2.07;;;1.20;;
3779;SDS011;1905;52.482;9.802;2023-04-24T02:41:31;1.43;;;1.33;;
3779;SDS011;1905;52.482;9.802;2023-04-24T02:43:59;1.03;;;1.03;;
3779;SDS011;1905;52.482;9.802;2023-04-24T02:46:28;4.33;;;1.10;;
3779;SDS011;1905;52.482;9.802;2023-04-24T02:48:56;1.30;;;1.20;;
3779;SDS011;1905;52.482;9.802;2023-04-24T02:51:23;0.93;;;0.90;;
3779;SDS011;1905;52.482;9.802;2023-04-24T02:53:51;0.97;;;0.97;;
3779;SDS011;1905;52.482;9.802;2023-04-24T02:56:18;2.43;;;1.03;;
3779;SDS011;1905;52.482;9.802;2023-04-24T02:58:46;1.93;;;1.10;;
3779;SDS011;1905;52.482;9.802;2023-04-24T03:01:14;1.03;;;0.93;;
3779;SDS011;1905;52.482;9.802;2023-04-24T03:03:43;1.00;;;1.00;;
3779;SDS011;1905;52.482;9.802;2023-04-24T03:06:10;1.20;;;1.10;;
3779;SDS011;1905;52.482;9.802;2023-04-24T03:08:38;1.00;;;0.90;;
3779;SDS011;1905;52.482;9.802;2023-04-24T03:11:05;1.10;;;1.10;;
3779;SDS011;1905;52.482;9.802;2023-04-24T03:13:33;1.30;;;1.20;;
3779;SDS011;1905;52.482;9.802;2023-04-24T03:16:01;1.40;;;1.30;;
3779;SDS011;1905;52.482;9.802;2023-04-24T03:18:29;0.90;;;0.90;;
3779;SDS011;1905;52.482;9.802;2023-04-24T03:20:58;1.27;;;1.13;;
3779;SDS011;1905;52.482;9.802;2023-04-24T03:23:26;1.30;;;1.17;;
3779;SDS011;1905;52.482;9.802;2023-04-24T03:25:53;1.20;;;1.20;;
3779;SDS011;1905;52.482;9.802;2023-04-24T03:28:21;1.00;;;1.00;;
3779;SDS011;1905;52.482;9.802;2023-04-24T03:30:55;2.80;;;1.20;;
3779;SDS011;1905;52.482;9.802;2023-04-24T03:33:25;1.20;;;1.10;;
3779;SDS011;1905;52.482;9.802;2023-04-24T03:36:00;3.23;;;1.00;;
3779;SDS011;1905;52.482;9.802;2023-04-24T03:38:35;3.57;;;1.10;;
3779;SDS011;1905;52.482;9.802;2023-04-24T03:41:28;1.20;;;1.10;;
3779;SDS011;1905;52.482;9.802;2023-04-24T03:44:08;2.53;;;1.10;;
3779;SDS011;1905;52.482;9.802;2023-04-24T03:46:36;1.00;;;1.00;;
3779;SDS011;1905;52.482;9.802;2023-04-24T03:49:04;0.90;;;0.90;;
3779;SDS011;1905;52.482;9.802;2023-04-24T03:51:37;1.73;;;0.90;;
3779;SDS011;1905;52.482;9.802;2023-04-24T03:54:17;1.10;;;1.00;;
3779;SDS011;1905;52.482;9.802;2023-04-24T03:56:44;1.30;;;1.20;;
3779;SDS011;1905;52.482;9.802;2023-04-24T03:59:12;1.03;;;1.03;;
3779;SDS011;1905;52.482;9.802;2023-04-24T04:01:46;0.90;;;0.90;;
3779;SDS011;1905;52.482;9.802;2023-04-24T04:04:16;1.53;;;1.37;;
3779;SDS011;1905;52.482;9.802;2023-04-24T04:06:45;2.43;;;1.23;;
3779;SDS011;1905;52.482;9.802;2023-04-24T04:09:14;0.97;;;0.97;;
3779;SDS011;1905;52.482;9.802;2023-04-24T04:11:41;1.13;;;1.03;;
3779;SDS011;1905;52.482;9.802;2023-04-24T04:14:11;1.30;;;1.20;;
3779;SDS011;1905;52.482;9.802;2023-04-24T04:16:42;1.50;;;1.10;;
3779;SDS011;1905;52.482;9.802;2023-04-24T04:19:10;1.47;;;1.00;;
3779;SDS011;1905;52.482;9.802;2023-04-24T04:21:40;1.10;;;1.00;;
3779;SDS011;1905;52.482;9.802;2023-04-24T04:24:17;1.10;;;1.10;;
3779;SDS011;1905;52.482;9.802;2023-04-24T04:26:45;1.10;;;1.00;;
3779;SDS011;1905;52.482;9.802;2023-04-24T04:29:21;1.07;;;1.00;;
3779;SDS011;1905;52.482;9.802;2023-04-24T04:31:50;1.10;;;1.00;;
3779;SDS011;1905;52.482;9.802;2023-04-24T04:34:19;1.57;;;1.20;;
3779;SDS011;1905;52.482;9.802;2023-04-24T04:36:49;1.40;;;1.20;;
3779;SDS011;1905;52.482;9.802;2023-04-24T04:39:29;4.30;;;1.17;;
3779;SDS011;1905;52.482;9.802;2023-04-24T04:42:02;4.60;;;1.40;;
3779;SDS011;1905;52.482;9.802;2023-04-24T04:44:37;2.60;;;1.20;;
3779;SDS011;1905;52.482;9.802;2023-04-24T04:47:05;1.10;;;1.00;;
3779;SDS011;1905;52.482;9.802;2023-04-24T04:49:35;1.17;;;1.10;;
3779;SDS011;1905;52.482;9.802;2023-04-24T04:52:04;0.93;;;0.93;;
3779;SDS011;1905;52.482;9.802;2023-04-24T04:54:33;1.30;;;1.20;;
3779;SDS011;1905;52.482;9.802;2023-04-24T04:57:00;4.90;;;1.27;;
3779;SDS011;1905;52.482;9.802;2023-04-24T04:59:31;2.10;;;1.30;;
3779;SDS011;1905;52.482;9.802;2023-04-24T05:02:04;1.20;;;1.10;;
3779;SDS011;1905;52.482;9.802;2023-04-24T05:04:32;1.30;;;1.07;;
3779;SDS011;1905;52.482;9.802;2023-04-24T05:07:00;1.23;;;1.10;;
3779;SDS011;1905;52.482;9.802;2023-04-24T05:09:31;1.10;;;1.10;;
3779;SDS011;1905;52.482;9.802;2023-04-24T05:12:03;2.67;;;1.90;;
3779;SDS011;1905;52.482;9.802;2023-04-24T05:14:35;3.67;;;2.00;;
3779;SDS011;1905;52.482;9.802;2023-04-24T05:17:03;1.67;;;1.57;;
3779;SDS011;1905;52.482;9.802;2023-04-24T05:19:31;1.63;;;1.53;;
3779;SDS011;1905;52.482;9.802;2023-04-24T05:22:02;1.20;;;1.10;;
3779;SDS011;1905;52.482;9.802;2023-04-24T05:24:36;5.20;;;1.63;;
3779;SDS011;1905;52.482;9.802;2023-04-24T05:27:11;1.33;;;1.20;;
3779;SDS011;1905;52.482;9.802;2023-04-24T05:29:39;1.50;;;1.20;;
3779;SDS011;1905;52.482;9.802;2023-04-24T05:32:08;1.67;;;1.53;;
3779;SDS011;1905;52.482;9.802;2023-04-24T05:34:36;4.30;;;1.47;;
3779;SDS011;1905;52.482;9.802;2023-04-24T05:37:03;1.30;;;1.20;;
3779;SDS011;1905;52.482;9.802;2023-04-24T05:39:34;1.90;;;1.10;;
3779;SDS011;1905;52.482;9.802;2023-04-24T05:42:02;1.47;;;1.37;;
3779;SDS011;1905;52.482;9.802;2023-04-24T05:44:32;1.30;;;1.20;;
3779;SDS011;1905;52.482;9.802;2023-04-24T05:46:59;1.17;;;1.10;;
3779;SDS011;1905;52.482;9.802;2023-04-24T05:49:27;1.40;;;1.30;;
3779;SDS011;1905;52.482;9.802;2023-04-24T05:51:56;1.50;;;1.40;;
3779;SDS011;1905;52.482;9.802;2023-04-24T05:54:24;1.93;;;1.43;;
3779;SDS011;1905;52.482;9.802;2023-04-24T05:56:52;1.27;;;1.17;;
3779;SDS011;1905;52.482;9.802;2023-04-24T05:59:31;2.00;;;1.40;;
3779;SDS011;1905;52.482;9.802;2023-04-24T06:01:59;1.33;;;1.20;;
3779;SDS011;1905;52.482;9.802;2023-04-24T06:04:27;1.63;;;1.53;;
3779;SDS011;1905;52.482;9.802;2023-04-24T06:06:57;1.40;;;1.30;;
3779;SDS011;1905;52.482;9.802;2023-04-24T06:09:25;1.90;;;1.37;;
3779;SDS011;1905;52.482;9.802;2023-04-24T06:11:53;1.57;;;1.47;;
3779;SDS011;1905;52.482;9.802;2023-04-24T06:14:26;1.60;;;1.50;;
3779;SDS011;1905;52.482;9.802;2023-04-24T06:17:15;3.60;;;1.30;;
3779;SDS011;1905;52.482;9.802;2023-04-24T06:19:45;1.50;;;1.40;;
3779;SDS011;1905;52.482;9.802;2023-04-24T06:22:13;2.70;;;1.50;;
3779;SDS011;1905;52.482;9.802;2023-04-24T06:24:41;1.30;;;1.20;;
3779;SDS011;1905;52.482;9.802;2023-04-24T06:27:09;1.73;;;1.17;;
3779;SDS011;1905;52.482;9.802;2023-04-24T06:29:39;1.20;;;1.20;;
3779;SDS011;1905;52.482;9.802;2023-04-24T06:32:07;2.33;;;1.80;;
3779;SDS011;1905;52.482;9.802;2023-04-24T06:34:36;2.40;;;1.60;;
3779;SDS011;1905;52.482;9.802;2023-04-24T06:37:04;2.43;;;1.47;;
3779;SDS011;1905;52.482;9.802;2023-04-24T06:39:31;2.80;;;1.67;;
3779;SDS011;1905;52.482;9.802;2023-04-24T06:41:59;1.40;;;1.30;;
3779;SDS011;1905;52.482;9.802;2023-04-24T06:44:26;1.53;;;1.43;;
3779;SDS011;1905;52.482;9.802;2023-04-24T06:46:54;2.20;;;1.37;;
3779;SDS011;1905;52.482;9.802;2023-04-24T06:49:21;1.70;;;1.53;;
3779;SDS011;1905;52.482;9.802;2023-04-24T06:51:50;2.00;;;1.80;;
3779;SDS011;1905;52.482;9.802;2023-04-24T06:54:17;2.40;;;2.20;;
3779;SDS011;1905;52.482;9.802;2023-04-24T06:56:45;2.53;;;2.33;;
3779;SDS011;1905;52.482;9.802;2023-04-24T06:59:14;3.53;;;3.00;;
3779;SDS011;1905;52.482;9.802;2023-04-24T07:01:41;3.30;;;3.00;;
3779;SDS011;1905;52.482;9.802;2023-04-24T07:04:09;3.57;;;3.37;;
3779;SDS011;1905;52.482;9.802;2023-04-24T07:06:38;3.40;;;2.80;;
3779;SDS011;1905;52.482;9.802;2023-04-24T07:09:07;2.50;;;2.30;;
3779;SDS011;1905;52.482;9.802;2023-04-24T07:11:35;3.87;;;3.27;;
3779;SDS011;1905;52.482;9.802;2023-04-24T07:14:05;4.17;;;3.37;;
3779;SDS011;1905;52.482;9.802;2023-04-24T07:16:32;4.00;;;3.40;;
3779;SDS011;1905;52.482;9.802;2023-04-24T07:19:00;4.27;;;3.40;;
3779;SDS011;1905;52.482;9.802;2023-04-24T07:21:28;6.37;;;3.60;;
3779;SDS011;1905;52.482;9.802;2023-04-24T07:23:57;5.47;;;3.30;;
3779;SDS011;1905;52.482;9.802;2023-04-24T07:26:26;3.33;;;3.03;;
3779;SDS011;1905;52.482;9.802;2023-04-24T07:28:54;4.90;;;3.90;;
3779;SDS011;1905;52.482;9.802;2023-04-24T07:31:22;5.03;;;4.47;;
3779;SDS011;1905;52.482;9.802;2023-04-24T07:33:50;3.80;;;3.50;;
3779;SDS011;1905;52.482;9.802;2023-04-24T07:36:17;6.00;;;4.60;;
3779;SDS011;1905;52.482;9.802;2023-04-24T07:38:46;4.80;;;4.37;;
3779;SDS011;1905;52.482;9.802;2023-04-24T07:41:14;5.10;;;4.60;;
3779;SDS011;1905;52.482;9.802;2023-04-24T07:43:43;5.63;;;4.53;;
3779;SDS011;1905;52.482;9.802;2023-04-24T07:46:11;5.93;;;3.60;;
3779;SDS011;1905;52.482;9.802;2023-04-24T07:48:39;6.10;;;4.17;;
3779;SDS011;1905;52.482;9.802;2023-04-24T07:51:07;9.67;;;4.20;;
3779;SDS011;1905;52.482;9.802;2023-04-24T07:53:36;4.33;;;3.13;;
3779;SDS011;1905;52.482;9.802;2023-04-24T07:56:04;6.30;;;4.53;;
3779;SDS011;1905;52.482;9.802;2023-04-24T07:58:31;7.67;;;4.70;;
3779;SDS011;1905;52.482;9.802;2023-04-24T08:01:00;5.97;;;4.10;;
3779;SDS011;1905;52.482;9.802;2023-04-24T08:03:28;7.00;;;5.20;;
3779;SDS011;1905;52.482;9.802;2023-04-24T08:05:56;6.23;;;4.90;;
3779;SDS011;1905;52.482;9.802;2023-04-24T08:08:24;8.07;;;5.03;;
3779;SDS011;1905;52.482;9.802;2023-04-24T08:10:52;7.10;;;5.07;;
3779;SDS011;1905;52.482;9.802;2023-04-24T08:13:19;7.63;;;5.13;;
3779;SDS011;1905;52.482;9.802;2023-04-24T08:15:47;8.80;;;5.40;;
3779;SDS011;1905;52.482;9.802;2023-04-24T08:18:16;12.30;;;5.87;;
3779;SDS011;1905;52.482;9.802;2023-04-24T08:20:43;9.37;;;5.50;;
3779;SDS011;1905;52.482;9.802;2023-04-24T08:23:12;6.80;;;5.43;;
3779;SDS011;1905;52.482;9.802;2023-04-24T08:25:39;11.00;;;6.50;;
3779;SDS011;1905;52.482;9.802;2023-04-24T08:28:08;9.20;;;5.90;;
3779;SDS011;1905;52.482;9.802;2023-04-24T08:30:36;8.03;;;6.50;;
3779;SDS011;1905;52.482;9.802;2023-04-24T08:33:04;8.90;;;6.60;;
3779;SDS011;1905;52.482;9.802;2023-04-24T08:35:33;8.80;;;6.33;;
3779;SDS011;1905;52.482;9.802;2023-04-24T08:38:01;10.60;;;7.17;;
3779;SDS011;1905;52.482;9.802;2023-04-24T08:40:28;7.40;;;6.53;;
3779;SDS011;1905;52.482;9.802;2023-04-24T08:42:59;11.30;;;6.73;;
3779;SDS011;1905;52.482;9.802;2023-04-24T08:45:27;9.40;;;6.57;;
3779;SDS011;1905;52.482;9.802;2023-04-24T08:47:54;6.77;;;5.70;;
3779;SDS011;1905;52.482;9.802;2023-04-24T08:50:22;7.87;;;5.90;;
3779;SDS011;1905;52.482;9.802;2023-04-24T08:52:51;9.40;;;6.97;;
3779;SDS011;1905;52.482;9.802;2023-04-24T08:55:20;6.10;;;5.00;;
3779;SDS011;1905;52.482;9.802;2023-04-24T08:57:49;6.93;;;6.27;;
3779;SDS011;1905;52.482;9.802;2023-04-24T09:00:18;7.80;;;5.60;;
3779;SDS011;1905;52.482;9.802;2023-04-24T09:02:47;6.13;;;5.53;;
3779;SDS011;1905;52.482;9.802;2023-04-24T09:05:16;7.13;;;5.50;;
3779;SDS011;1905;52.482;9.802;2023-04-24T09:07:45;6.90;;;6.20;;
3779;SDS011;1905;52.482;9.802;2023-04-24T09:10:18;6.20;;;5.50;;
3779;SDS011;1905;52.482;9.802;2023-04-24T09:12:46;5.40;;;4.90;;
3779;SDS011;1905;52.482;9.802;2023-04-24T09:15:14;7.53;;;4.77;;
3779;SDS011;1905;52.482;9.802;2023-04-24T09:17:42;5.67;;;4.73;;
3779;SDS011;1905;52.482;9.802;2023-04-24T09:20:10;5.70;;;5.10;;
3779;SDS011;1905;52.482;9.802;2023-04-24T09:22:38;4.70;;;4.13;;
3779;SDS011;1905;52.482;9.802;2023-04-24T09:25:06;6.23;;;5.07;;
3779;SDS011;1905;52.482;9.802;2023-04-24T09:27:36;7.10;;;5.20;;
3779;SDS011;1905;52.482;9.802;2023-04-24T09:30:10;6.30;;;5.30;;
3779;SDS011;1905;52.482;9.802;2023-04-24T09:32:38;4.20;;;3.80;;
3779;SDS011;1905;52.482;9.802;2023-04-24T09:35:06;5.10;;;4.60;;
3779;SDS011;1905;52.482;9.802;2023-04-24T09:37:36;6.00;;;3.90;;
3779;SDS011;1905;52.482;9.802;2023-04-24T09:40:11;5.27;;;4.27;;
3779;SDS011;1905;52.482;9.802;2023-04-24T09:42:44;5.53;;;4.33;;
3779;SDS011;1905;52.482;9.802;2023-04-24T09:45:12;4.00;;;3.70;;
3779;SDS011;1905;52.482;9.802;2023-04-24T09:47:42;5.67;;;4.17;;
3779;SDS011;1905;52.482;9.802;2023-04-24T09:50:12;3.23;;;3.03;;
3779;SDS011;1905;52.482;9.802;2023-04-24T09:52:42;5.13;;;4.00;;
3779;SDS011;1905;52.482;9.802;2023-04-24T09:55:12;4.70;;;3.80;;
3779;SDS011;1905;52.482;9.802;2023-04-24T09:57:54;3.73;;;3.30;;
3779;SDS011;1905;52.482;9.802;2023-04-24T10:00:23;4.17;;;3.80;;
3779;SDS011;1905;52.482;9.802;2023-04-24T10:02:58;3.33;;;3.10;;
3779;SDS011;1905;52.482;9.802;2023-04-24T10:05:28;5.17;;;3.10;;
3779;SDS011;1905;52.482;9.802;2023-04-24T10:07:56;3.63;;;3.33;;
3779;SDS011;1905;52.482;9.802;2023-04-24T10:10:25;7.93;;;4.20;;
3779;SDS011;1905;52.482;9.802;2023-04-24T10:12:54;4.20;;;3.80;;
3779;SDS011;1905;52.482;9.802;2023-04-24T10:15:22;3.70;;;3.40;;
3779;SDS011;1905;52.482;9.802;2023-04-24T10:17:50;3.47;;;3.17;;
3779;SDS011;1905;52.482;9.802;2023-04-24T10:20:20;3.67;;;3.30;;
3779;SDS011;1905;52.482;9.802;2023-04-24T10:22:49;3.47;;;3.10;;
3779;SDS011;1905;52.482;9.802;2023-04-24T10:25:18;3.43;;;3.13;;
3779;SDS011;1905;52.482;9.802;2023-04-24T10:27:47;4.80;;;4.00;;
3779;SDS011;1905;52.482;9.802;2023-04-24T10:30:17;5.00;;;3.93;;
3779;SDS011;1905;52.482;9.802;2023-04-24T10:32:46;5.90;;;4.23;;
3779;SDS011;1905;52.482;9.802;2023-04-24T10:35:14;5.27;;;3.50;;
3779;SDS011;1905;52.482;9.802;2023-04-24T10:37:43;3.37;;;2.90;;
3779;SDS011;1905;52.482;9.802;2023-04-24T10:40:16;4.20;;;3.40;;
3779;SDS011;1905;52.482;9.802;2023-04-24T10:42:47;3.30;;;3.00;;
3779;SDS011;1905;52.482;9.802;2023-04-24T10:45:19;3.33;;;3.03;;
3779;SDS011;1905;52.482;9.802;2023-04-24T10:47:52;3.20;;;2.90;;
3779;SDS011;1905;52.482;9.802;2023-04-24T10:50:41;8.73;;;3.30;;
3779;SDS011;1905;52.482;9.802;2023-04-24T10:53:12;5.00;;;4.60;;
3779;SDS011;1905;52.482;9.802;2023-04-24T10:55:42;3.63;;;3.43;;
3779;SDS011;1905;52.482;9.802;2023-04-24T10:58:11;3.23;;;2.93;;
3779;SDS011;1905;52.482;9.802;2023-04-24T11:00:40;3.43;;;3.03;;
3779;SDS011;1905;52.482;9.802;2023-04-24T11:03:23;2.77;;;2.60;;
3779;SDS011;1905;52.482;9.802;2023-04-24T11:05:55;2.90;;;2.70;;
3779;SDS011;1905;52.482;9.802;2023-04-24T11:08:24;2.90;;;2.60;;
3779;SDS011;1905;52.482;9.802;2023-04-24T11:10:55;2.70;;;2.43;;
3779;SDS011;1905;52.482;9.802;2023-04-24T11:16:32;2.70;;;2.50;;
3779;SDS011;1905;52.482;9.802;2023-04-24T11:19:02;1.97;;;1.87;;
3779;SDS011;1905;52.482;9.802;2023-04-24T11:21:40;2.60;;;2.40;;
3779;SDS011;1905;52.482;9.802;2023-04-24T11:24:21;2.13;;;2.03;;
3779;SDS011;1905;52.482;9.802;2023-04-24T11:26:51;3.10;;;2.50;;
3779;SDS011;1905;52.482;9.802;2023-04-24T11:29:19;2.80;;;2.60;;
3779;SDS011;1905;52.482;9.802;2023-04-24T11:31:50;2.13;;;2.03;;
3779;SDS011;1905;52.482;9.802;2023-04-24T11:34:18;3.60;;;2.40;;
3779;SDS011;1905;52.482;9.802;2023-04-24T11:36:49;2.00;;;1.80;;
3779;SDS011;1905;52.482;9.802;2023-04-24T11:39:17;1.80;;;1.70;;
3779;SDS011;1905;52.482;9.802;2023-04-24T11:41:44;1.90;;;1.80;;
3779;SDS011;1905;52.482;9.802;2023-04-24T11:44:13;2.20;;;2.10;;
3779;SDS011;1905;52.482;9.802;2023-04-24T11:46:42;3.83;;;1.97;;
3779;SDS011;1905;52.482;9.802;2023-04-24T11:49:11;1.93;;;1.73;;
3779;SDS011;1905;52.482;9.802;2023-04-24T11:51:39;2.40;;;1.90;;
3779;SDS011;1905;52.482;9.802;2023-04-24T11:54:18;2.13;;;1.90;;
3779;SDS011;1905;52.482;9.802;2023-04-24T11:56:46;1.80;;;1.70;;
3779;SDS011;1905;52.482;9.802;2023-04-24T11:59:14;2.80;;;2.07;;
3779;SDS011;1905;52.482;9.802;2023-04-24T12:01:44;2.27;;;2.07;;
3779;SDS011;1905;52.482;9.802;2023-04-24T12:04:14;1.80;;;1.70;;
3779;SDS011;1905;52.482;9.802;2023-04-24T12:09:26;2.10;;;1.70;;
3779;SDS011;1905;52.482;9.802;2023-04-24T12:11:53;1.37;;;1.27;;
3779;SDS011;1905;52.482;9.802;2023-04-24T12:14:21;1.77;;;1.60;;
3779;SDS011;1905;52.482;9.802;2023-04-24T12:16:49;3.53;;;1.50;;
3779;SDS011;1905;52.482;9.802;2023-04-24T12:19:20;1.80;;;1.70;;
3779;SDS011;1905;52.482;9.802;2023-04-24T12:21:58;1.70;;;1.60;;
3779;SDS011;1905;52.482;9.802;2023-04-24T12:24:27;2.30;;;1.50;;
3779;SDS011;1905;52.482;9.802;2023-04-24T12:26:55;1.87;;;1.77;;
3779;SDS011;1905;52.482;9.802;2023-04-24T12:29:23;1.97;;;1.80;;
3779;SDS011;1905;52.482;9.802;2023-04-24T12:31:51;2.23;;;2.13;;
3779;SDS011;1905;52.482;9.802;2023-04-24T12:34:20;2.60;;;1.70;;
3779;SDS011;1905;52.482;9.802;2023-04-24T12:36:48;2.00;;;1.90;;
3779;SDS011;1905;52.482;9.802;2023-04-24T12:39:16;1.33;;;1.23;;
3779;SDS011;1905;52.482;9.802;2023-04-24T12:41:50;1.80;;;1.70;;
3779;SDS011;1905;52.482;9.802;2023-04-24T12:44:29;1.90;;;1.80;;
3779;SDS011;1905;52.482;9.802;2023-04-24T12:46:57;1.80;;;1.70;;
3779;SDS011;1905;52.482;9.802;2023-04-24T12:49:27;7.63;;;1.70;;
3779;SDS011;1905;52.482;9.802;2023-04-24T12:51:55;1.80;;;1.70;;
3779;SDS011;1905;52.482;9.802;2023-04-24T12:54:22;2.53;;;2.43;;
3779;SDS011;1905;52.482;9.802;2023-04-24T12:56:50;2.07;;;1.77;;
3779;SDS011;1905;52.482;9.802;2023-04-24T12:59:19;2.80;;;1.63;;
3779;SDS011;1905;52.482;9.802;2023-04-24T13:01:46;2.03;;;1.87;;
3779;SDS011;1905;52.482;9.802;2023-04-24T13:04:14;1.73;;;1.60;;
3779;SDS011;1905;52.482;9.802;2023-04-24T13:06:44;1.63;;;1.53;;
3779;SDS011;1905;52.482;9.802;2023-04-24T13:09:12;2.70;;;1.40;;
3779;SDS011;1905;52.482;9.802;2023-04-24T13:11:39;1.50;;;1.40;;
3779;SDS011;1905;52.482;9.802;2023-04-24T13:14:07;1.93;;;1.83;;
3779;SDS011;1905;52.482;9.802;2023-04-24T13:16:34;2.20;;;2.00;;
3779;SDS011;1905;52.482;9.802;2023-04-24T13:19:02;1.80;;;1.70;;
3779;SDS011;1905;52.482;9.802;2023-04-24T13:21:29;2.23;;;1.87;;
3779;SDS011;1905;52.482;9.802;2023-04-24T13:23:59;1.80;;;1.70;;
3779;SDS011;1905;52.482;9.802;2023-04-24T13:26:27;1.40;;;1.30;;
3779;SDS011;1905;52.482;9.802;2023-04-24T13:28:54;1.57;;;1.47;;
3779;SDS011;1905;52.482;9.802;2023-04-24T13:31:22;2.10;;;1.90;;
3779;SDS011;1905;52.482;9.802;2023-04-24T13:33:49;2.30;;;2.10;;
3779;SDS011;1905;52.482;9.802;2023-04-24T13:36:17;1.60;;;1.50;;
3779;SDS011;1905;52.482;9.802;2023-04-24T13:38:44;1.63;;;1.53;;
3779;SDS011;1905;52.482;9.802;2023-04-24T13:41:13;2.43;;;2.23;;
3779;SDS011;1905;52.482;9.802;2023-04-24T13:43:41;1.57;;;1.43;;
3779;SDS011;1905;52.482;9.802;2023-04-24T13:46:09;1.73;;;1.63;;
3779;SDS011;1905;52.482;9.802;2023-04-24T13:48:37;2.20;;;1.60;;
3779;SDS011;1905;52.482;9.802;2023-04-24T13:51:05;2.30;;;1.70;;
3779;SDS011;1905;52.482;9.802;2023-04-24T13:53:32;2.43;;;1.43;;
3779;SDS011;1905;52.482;9.802;2023-04-24T13:56:02;1.10;;;1.00;;
3779;SDS011;1905;52.482;9.802;2023-04-24T13:58:31;0.90;;;0.90;;
3779;SDS011;1905;52.482;9.802;2023-04-24T14:00:58;1.03;;;1.00;;
3779;SDS011;1905;52.482;9.802;2023-04-24T14:03:26;1.00;;;1.00;;
3779;SDS011;1905;52.482;9.802;2023-04-24T14:05:54;1.30;;;1.20;;
3779;SDS011;1905;52.482;9.802;2023-04-24T14:08:22;0.90;;;0.90;;
3779;SDS011;1905;52.482;9.802;2023-04-24T14:10:51;0.90;;;0.90;;
3779;SDS011;1905;52.482;9.802;2023-04-24T14:13:18;1.67;;;1.00;;
3779;SDS011;1905;52.482;9.802;2023-04-24T14:15:48;0.90;;;0.90;;
3779;SDS011;1905;52.482;9.802;2023-04-24T14:18:16;1.80;;;1.70;;
3779;SDS011;1905;52.482;9.802;2023-04-24T14:20:43;4.17;;;1.83;;
3779;SDS011;1905;52.482;9.802;2023-04-24T14:23:11;1.73;;;1.40;;
3779;SDS011;1905;52.482;9.802;2023-04-24T14:25:39;2.90;;;2.37;;
3779;SDS011;1905;52.482;9.802;2023-04-24T14:28:06;1.93;;;1.37;;
3779;SDS011;1905;52.482;9.802;2023-04-24T14:30:34;1.50;;;1.40;;
3779;SDS011;1905;52.482;9.802;2023-04-24T14:33:04;1.70;;;1.20;;
3779;SDS011;1905;52.482;9.802;2023-04-24T14:35:32;1.80;;;1.70;;
3779;SDS011;1905;52.482;9.802;2023-04-24T14:38:01;1.50;;;1.33;;
3779;SDS011;1905;52.482;9.802;2023-04-24T14:40:28;3.10;;;1.67;;
3779;SDS011;1905;52.482;9.802;2023-04-24T14:43:17;2.50;;;2.30;;
3779;SDS011;1905;52.482;9.802;2023-04-24T14:45:44;2.20;;;1.93;;
3779;SDS011;1905;52.482;9.802;2023-04-24T14:48:13;1.90;;;1.80;;
3779;SDS011;1905;52.482;9.802;2023-04-24T14:50:42;2.70;;;2.30;;
3779;SDS011;1905;52.482;9.802;2023-04-24T14:53:10;1.93;;;1.83;;
3779;SDS011;1905;52.482;9.802;2023-04-24T14:55:37;4.30;;;1.97;;
3779;SDS011;1905;52.482;9.802;2023-04-24T14:58:05;2.47;;;2.27;;
3779;SDS011;1905;52.482;9.802;2023-04-24T15:00:32;3.17;;;1.97;;
3779;SDS011;1905;52.482;9.802;2023-04-24T15:03:00;2.10;;;2.00;;
3779;SDS011;1905;52.482;9.802;2023-04-24T15:05:29;3.57;;;2.23;;
3779;SDS011;1905;52.482;9.802;2023-04-24T15:07:57;4.30;;;2.50;;
3779;SDS011;1905;52.482;9.802;2023-04-24T15:10:25;2.90;;;2.60;;
3779;SDS011;1905;52.482;9.802;2023-04-24T15:12:53;4.20;;;2.10;;
3779;SDS011;1905;52.482;9.802;2023-04-24T15:15:20;3.37;;;2.37;;
3779;SDS011;1905;52.482;9.802;2023-04-24T15:17:48;2.40;;;2.20;;
3779;SDS011;1905;52.482;9.802;2023-04-24T15:20:15;6.13;;;2.40;;
3779;SDS011;1905;52.482;9.802;2023-04-24T15:22:45;2.50;;;2.30;;
3779;SDS011;1905;52.482;9.802;2023-04-24T15:25:12;7.83;;;3.00;;
3779;SDS011;1905;52.482;9.802;2023-04-24T15:27:41;2.83;;;2.60;;
3779;SDS011;1905;52.482;9.802;2023-04-24T15:30:10;2.60;;;2.30;;
3779;SDS011;1905;52.482;9.802;2023-04-24T15:32:38;2.47;;;2.27;;